LiveATC.Net - Listen to live air traffic control over the Internet!


ICAO: CSB3  IATA: CSB3   Airport: St-Mathieu-de-Beloeil Airport
City: St-Mathieu-De-Beloeil   State/Province: Quebec
Country: Canada   Continent: North America
CYHU METAR Weather: CYHU 282210Z AUTO 17009KT 9SM SCT014 BKN090 22/20 A2975 RMK SLP075 DENSITY ALT 1000FT
CSB3 Flight Activity (FlightAware)

CSB3 CTAF
Feed Status: UP   Listeners: 0
Listen in your browser - HTML5 player (in browser, HTML5)
Click here to listen with your own player (launches your MP3 player)
Archive Access: CSB3 CTAF
FacilityFrequency
St-Mathieu-De-Beloeil CTAF122.700

NOTICE

Unauthorized use prohibited. See LiveATC.net Terms of Service


Airport/ARTCC Code
Frequency Search
(e.g., 124.400, 128.75)
Site-wide search
 


Browse Feeds
Top 50 Feeds
Coverage Map
Bad Weather Areas

LiveATC FAQ
Offer LiveATC feed
Contact LiveATC.net
Press Inquiries

LiveATC on iPhone
LiveATC on Android

Windows Phone
Windows 8/10

LiveATC Mobile
(Mobile browser)

ATC Audio Archives
Interesting Recordings

LiveATC Forums


Home Page
About LiveATC.net
Make a Donation
Terms of Use
Privacy Policy

Canadian Air Freqs

AIRMETs/SIGMETs

FAA Airport Status
Nat'l Airspace Status
Arrival Demand Charts


Server Software By:
Icecast.org
Liquidsoap